sensor_id;sensor_type;location;lat;lon;timestamp;pressure;altitude;pressure_sealevel;temperature;humidity
68807;BME280;55800;54.272;18.558;2022-08-03T00:00:39;101218.13;;;14.25;47.63
68807;BME280;55800;54.272;18.558;2022-08-03T00:03:09;101219.00;;;14.26;47.70
68807;BME280;55800;54.272;18.558;2022-08-03T00:05:38;101216.38;;;14.24;47.84
68807;BME280;55800;54.272;18.558;2022-08-03T00:08:27;101219.16;;;14.23;48.01
68807;BME280;55800;54.272;18.558;2022-08-03T00:10:56;101217.41;;;14.22;47.77
68807;BME280;55800;54.272;18.558;2022-08-03T00:13:25;101218.41;;;14.19;47.94
68807;BME280;55800;54.272;18.558;2022-08-03T00:15:54;101217.56;;;14.19;48.06
68807;BME280;55800;54.272;18.558;2022-08-03T00:18:24;101212.19;;;14.19;48.61
68807;BME280;55800;54.272;18.558;2022-08-03T00:20:53;101216.69;;;14.18;48.50
68807;BME280;55800;54.272;18.558;2022-08-03T00:23:22;101207.81;;;14.16;48.42
68807;BME280;55800;54.272;18.558;2022-08-03T00:25:51;101214.22;;;14.14;48.44
68807;BME280;55800;54.272;18.558;2022-08-03T00:28:20;101211.59;;;14.12;48.41
68807;BME280;55800;54.272;18.558;2022-08-03T00:30:53;101209.75;;;14.13;48.84
68807;BME280;55800;54.272;18.558;2022-08-03T00:33:25;101201.69;;;14.13;48.91
68807;BME280;55800;54.272;18.558;2022-08-03T00:36:01;101205.41;;;14.10;49.12
68807;BME280;55800;54.272;18.558;2022-08-03T00:38:33;101202.72;;;14.10;49.24
68807;BME280;55800;54.272;18.558;2022-08-03T00:41:02;101200.97;;;14.09;48.93
68807;BME280;55800;54.272;18.558;2022-08-03T00:43:31;101193.00;;;14.07;48.60
68807;BME280;55800;54.272;18.558;2022-08-03T00:46:00;101191.22;;;14.06;49.00
68807;BME280;55800;54.272;18.558;2022-08-03T00:48:30;101193.91;;;14.06;48.99
68807;BME280;55800;54.272;18.558;2022-08-03T00:51:00;101177.78;;;14.06;48.89
68807;BME280;55800;54.272;18.558;2022-08-03T00:53:30;101192.19;;;14.05;49.04
68807;BME280;55800;54.272;18.558;2022-08-03T00:55:59;101182.28;;;14.06;48.92
68807;BME280;55800;54.272;18.558;2022-08-03T00:58:28;101181.44;;;14.05;48.86
68807;BME280;55800;54.272;18.558;2022-08-03T01:00:56;101178.75;;;14.05;48.79
68807;BME280;55800;54.272;18.558;2022-08-03T01:03:26;101174.22;;;14.06;48.90
68807;BME280;55800;54.272;18.558;2022-08-03T01:05:57;101174.16;;;14.07;49.01
68807;BME280;55800;54.272;18.558;2022-08-03T01:08:31;101176.69;;;14.10;49.33
68807;BME280;55800;54.272;18.558;2022-08-03T01:11:05;101174.00;;;14.10;49.36
68807;BME280;55800;54.272;18.558;2022-08-03T01:13:38;101163.19;;;14.12;49.51
68807;BME280;55800;54.272;18.558;2022-08-03T01:16:29;101157.72;;;14.14;49.77
68807;BME280;55800;54.272;18.558;2022-08-03T01:19:08;101165.81;;;14.14;49.91
68807;BME280;55800;54.272;18.558;2022-08-03T01:21:51;101157.66;;;14.15;50.05
68807;BME280;55800;54.272;18.558;2022-08-03T01:24:30;101164.84;;;14.15;50.03
68807;BME280;55800;54.272;18.558;2022-08-03T01:27:02;101159.47;;;14.15;49.99
68807;BME280;55800;54.272;18.558;2022-08-03T01:32:20;101155.94;;;14.14;49.87
68807;BME280;55800;54.272;18.558;2022-08-03T01:35:10;101156.78;;;14.15;49.75
68807;BME280;55800;54.272;18.558;2022-08-03T01:37:41;101156.78;;;14.15;49.82
68807;BME280;55800;54.272;18.558;2022-08-03T01:40:11;101152.28;;;14.15;49.76
68807;BME280;55800;54.272;18.558;2022-08-03T01:42:42;101152.19;;;14.17;49.86
68807;BME280;55800;54.272;18.558;2022-08-03T01:45:12;101153.16;;;14.16;49.57
68807;BME280;55800;54.272;18.558;2022-08-03T01:47:45;101148.66;;;14.16;49.49
68807;BME280;55800;54.272;18.558;2022-08-03T01:50:18;101144.13;;;14.17;49.56
68807;BME280;55800;54.272;18.558;2022-08-03T01:52:48;101143.19;;;14.18;49.58
68807;BME280;55800;54.272;18.558;2022-08-03T01:55:18;101135.13;;;14.18;49.58
68807;BME280;55800;54.272;18.558;2022-08-03T01:57:47;101142.25;;;14.19;49.86
68807;BME280;55800;54.272;18.558;2022-08-03T02:00:33;101142.25;;;14.19;49.90
68807;BME280;55800;54.272;18.558;2022-08-03T02:03:05;101140.50;;;14.18;49.76
68807;BME280;55800;54.272;18.558;2022-08-03T02:05:34;101147.63;;;14.19;49.84
68807;BME280;55800;54.272;18.558;2022-08-03T02:08:04;101131.50;;;14.19;49.89
68807;BME280;55800;54.272;18.558;2022-08-03T02:10:34;101129.75;;;14.18;49.85
68807;BME280;55800;54.272;18.558;2022-08-03T02:13:04;101132.44;;;14.18;49.89
68807;BME280;55800;54.272;18.558;2022-08-03T02:15:34;101131.56;;;14.17;49.85
68807;BME280;55800;54.272;18.558;2022-08-03T02:18:06;101136.94;;;14.17;49.76
68807;BME280;55800;54.272;18.558;2022-08-03T02:20:37;101133.38;;;14.17;49.71
68807;BME280;55800;54.272;18.558;2022-08-03T02:23:06;101138.75;;;14.17;49.70
68807;BME280;55800;54.272;18.558;2022-08-03T02:25:37;101126.25;;;14.16;49.71
68807;BME280;55800;54.272;18.558;2022-08-03T02:28:09;101134.31;;;14.16;49.64
68807;BME280;55800;54.272;18.558;2022-08-03T02:30:39;101131.63;;;14.16;49.65
68807;BME280;55800;54.272;18.558;2022-08-03T02:33:13;101134.31;;;14.16;49.44
68807;BME280;55800;54.272;18.558;2022-08-03T02:35:44;101132.53;;;14.16;49.59
68807;BME280;55800;54.272;18.558;2022-08-03T02:38:15;101130.69;;;14.17;49.60
68807;BME280;55800;54.272;18.558;2022-08-03T02:40:46;101130.63;;;14.18;50.09
68807;BME280;55800;54.272;18.558;2022-08-03T02:43:18;101125.25;;;14.18;49.85
68807;BME280;55800;54.272;18.558;2022-08-03T02:45:48;101123.44;;;14.19;49.81
68807;BME280;55800;54.272;18.558;2022-08-03T02:48:20;101131.50;;;14.19;49.75
68807;BME280;55800;54.272;18.558;2022-08-03T02:50:50;101121.59;;;14.19;50.10
68807;BME280;55800;54.272;18.558;2022-08-03T02:53:20;101121.53;;;14.21;50.09
68807;BME280;55800;54.272;18.558;2022-08-03T02:55:49;101128.66;;;14.22;50.35
68807;BME280;55800;54.272;18.558;2022-08-03T02:58:19;101129.53;;;14.22;50.26
68807;BME280;55800;54.272;18.558;2022-08-03T03:00:51;101128.66;;;14.22;49.97
68807;BME280;55800;54.272;18.558;2022-08-03T03:03:22;101124.06;;;14.24;50.04
68807;BME280;55800;54.272;18.558;2022-08-03T03:05:54;101126.75;;;14.24;50.05
68807;BME280;55800;54.272;18.558;2022-08-03T03:08:26;101124.84;;;14.26;50.13
68807;BME280;55800;54.272;18.558;2022-08-03T03:13:46;101123.84;;;14.28;50.22
68807;BME280;55800;54.272;18.558;2022-08-03T03:16:16;101133.63;;;14.31;50.27
68807;BME280;55800;54.272;18.558;2022-08-03T03:18:46;101128.16;;;14.32;50.26
68807;BME280;55800;54.272;18.558;2022-08-03T03:21:16;101132.59;;;14.33;50.30
68807;BME280;55800;54.272;18.558;2022-08-03T03:23:47;101133.41;;;14.35;50.27
68807;BME280;55800;54.272;18.558;2022-08-03T03:26:16;101124.38;;;14.36;50.75
68807;BME280;55800;54.272;18.558;2022-08-03T03:28:46;101117.09;;;14.38;50.85
68807;BME280;55800;54.272;18.558;2022-08-03T03:31:15;101123.22;;;14.42;51.14
68807;BME280;55800;54.272;18.558;2022-08-03T03:33:44;101119.56;;;14.43;51.44
68807;BME280;55800;54.272;18.558;2022-08-03T03:36:14;101110.56;;;14.44;51.66
68807;BME280;55800;54.272;18.558;2022-08-03T03:38:43;101114.03;;;14.46;52.00
68807;BME280;55800;54.272;18.558;2022-08-03T03:41:12;101116.66;;;14.47;51.87
68807;BME280;55800;54.272;18.558;2022-08-03T03:43:40;101118.41;;;14.48;51.58
68807;BME280;55800;54.272;18.558;2022-08-03T03:46:11;101115.63;;;14.50;51.55
68807;BME280;55800;54.272;18.558;2022-08-03T03:48:40;101120.03;;;14.51;51.49
68807;BME280;55800;54.272;18.558;2022-08-03T03:51:09;101127.09;;;14.53;51.53
68807;BME280;55800;54.272;18.558;2022-08-03T03:53:40;101126.06;;;14.56;51.59
68807;BME280;55800;54.272;18.558;2022-08-03T03:56:08;101134.94;;;14.58;51.37
68807;BME280;55800;54.272;18.558;2022-08-03T03:58:37;101138.44;;;14.60;51.29
68807;BME280;55800;54.272;18.558;2022-08-03T04:01:06;101135.59;;;14.63;51.35
68807;BME280;55800;54.272;18.558;2022-08-03T04:03:36;101131.78;;;14.67;51.47
68807;BME280;55800;54.272;18.558;2022-08-03T04:06:05;101131.63;;;14.70;51.65
68807;BME280;55800;54.272;18.558;2022-08-03T04:08:53;101138.59;;;14.74;51.87
68807;BME280;55800;54.272;18.558;2022-08-03T04:11:40;101140.22;;;14.78;51.99
68807;BME280;55800;54.272;18.558;2022-08-03T04:14:12;101137.34;;;14.81;52.22
68807;BME280;55800;54.272;18.558;2022-08-03T04:16:43;101144.31;;;14.85;51.94
68807;BME280;55800;54.272;18.558;2022-08-03T04:19:14;101145.88;;;14.89;52.40
68807;BME280;55800;54.272;18.558;2022-08-03T04:21:50;101142.03;;;14.95;52.21
68807;BME280;55800;54.272;18.558;2022-08-03T04:24:25;101146.38;;;14.97;52.32
68807;BME280;55800;54.272;18.558;2022-08-03T04:26:56;101145.28;;;15.01;52.04
68807;BME280;55800;54.272;18.558;2022-08-03T04:29:27;101150.50;;;15.04;52.26
68807;BME280;55800;54.272;18.558;2022-08-03T04:31:56;101143.94;;;15.10;52.16
68807;BME280;55800;54.272;18.558;2022-08-03T04:34:29;101147.31;;;15.13;52.26
68807;BME280;55800;54.272;18.558;2022-08-03T04:36:59;101147.97;;;15.18;52.65
68807;BME280;55800;54.272;18.558;2022-08-03T04:39:30;101154.75;;;15.25;52.97
68807;BME280;55800;54.272;18.558;2022-08-03T04:42:01;101154.44;;;15.31;53.12
68807;BME280;55800;54.272;18.558;2022-08-03T04:44:35;101155.94;;;15.37;53.34
68807;BME280;55800;54.272;18.558;2022-08-03T04:47:05;101157.53;;;15.41;53.24
68807;BME280;55800;54.272;18.558;2022-08-03T04:49:34;101162.72;;;15.45;52.93
68807;BME280;55800;54.272;18.558;2022-08-03T04:52:04;101164.28;;;15.49;52.89
68807;BME280;55800;54.272;18.558;2022-08-03T04:54:39;101163.94;;;15.55;53.10
68807;BME280;55800;54.272;18.558;2022-08-03T04:57:16;101158.13;;;15.63;53.23
68807;BME280;55800;54.272;18.558;2022-08-03T04:59:50;101165.03;;;15.69;52.97
68807;BME280;55800;54.272;18.558;2022-08-03T05:02:29;101175.47;;;15.75;53.17
68807;BME280;55800;54.272;18.558;2022-08-03T05:04:58;101171.56;;;15.80;52.95
68807;BME280;55800;54.272;18.558;2022-08-03T05:07:27;101175.69;;;15.87;52.70
68807;BME280;55800;54.272;18.558;2022-08-03T05:10:07;101184.16;;;15.97;53.39
68807;BME280;55800;54.272;18.558;2022-08-03T05:12:43;101181.91;;;16.05;53.23
68807;BME280;55800;54.272;18.558;2022-08-03T05:15:13;101171.53;;;16.13;52.89
68807;BME280;55800;54.272;18.558;2022-08-03T05:17:42;101176.44;;;16.22;52.99
68807;BME280;55800;54.272;18.558;2022-08-03T05:20:11;101176.78;;;16.31;53.09
68807;BME280;55800;54.272;18.558;2022-08-03T05:22:45;101180.63;;;16.43;53.72
68807;BME280;55800;54.272;18.558;2022-08-03T05:25:15;101189.78;;;16.56;53.78
68807;BME280;55800;54.272;18.558;2022-08-03T05:27:48;101194.56;;;16.67;53.55
68807;BME280;55800;54.272;18.558;2022-08-03T05:30:17;101184.09;;;16.76;53.59
68807;BME280;55800;54.272;18.558;2022-08-03T05:33:01;101178.94;;;16.87;53.46
68807;BME280;55800;54.272;18.558;2022-08-03T05:35:30;101187.34;;;16.97;53.47
68807;BME280;55800;54.272;18.558;2022-08-03T05:38:19;101177.66;;;17.08;53.37
68807;BME280;55800;54.272;18.558;2022-08-03T05:40:56;101179.81;;;17.17;53.36
68807;BME280;55800;54.272;18.558;2022-08-03T05:43:45;101172.78;;;17.29;53.29
68807;BME280;55800;54.272;18.558;2022-08-03T05:46:14;101191.16;;;17.38;53.49
68807;BME280;55800;54.272;18.558;2022-08-03T05:48:43;101182.50;;;17.47;53.64
68807;BME280;55800;54.272;18.558;2022-08-03T05:51:12;101182.03;;;17.55;53.33
68807;BME280;55800;54.272;18.558;2022-08-03T05:53:41;101185.13;;;17.63;53.46
68807;BME280;55800;54.272;18.558;2022-08-03T05:56:12;101172.97;;;17.70;53.21
68807;BME280;55800;54.272;18.558;2022-08-03T05:58:43;101181.47;;;17.78;53.21
68807;BME280;55800;54.272;18.558;2022-08-03T06:01:13;101179.16;;;17.86;53.29
68807;BME280;55800;54.272;18.558;2022-08-03T06:03:42;101177.69;;;17.94;53.09
68807;BME280;55800;54.272;18.558;2022-08-03T06:06:11;101179.94;;;18.02;53.06
68807;BME280;55800;54.272;18.558;2022-08-03T06:08:40;101183.03;;;18.10;53.02
68807;BME280;55800;54.272;18.558;2022-08-03T06:11:09;101183.28;;;18.20;53.07
68807;BME280;55800;54.272;18.558;2022-08-03T06:13:40;101189.88;;;18.30;53.12
68807;BME280;55800;54.272;18.558;2022-08-03T06:16:09;101182.09;;;18.38;53.01
68807;BME280;55800;54.272;18.558;2022-08-03T06:18:38;101194.97;;;18.48;53.05
68807;BME280;55800;54.272;18.558;2022-08-03T06:21:07;101195.22;;;18.58;53.00
68807;BME280;55800;54.272;18.558;2022-08-03T06:23:43;101201.81;;;18.68;53.15
68807;BME280;55800;54.272;18.558;2022-08-03T06:26:23;101203.69;;;18.80;53.42
68807;BME280;55800;54.272;18.558;2022-08-03T06:28:53;101198.31;;;18.93;53.21
68807;BME280;55800;54.272;18.558;2022-08-03T06:31:23;101185.88;;;19.03;53.49
68807;BME280;55800;54.272;18.558;2022-08-03T06:34:00;101195.03;;;19.14;53.68
68807;BME280;55800;54.272;18.558;2022-08-03T06:36:50;101197.66;;;19.28;53.68
68807;BME280;55800;54.272;18.558;2022-08-03T06:39:19;101196.00;;;19.40;53.57
68807;BME280;55800;54.272;18.558;2022-08-03T06:41:50;101192.41;;;19.52;53.62
68807;BME280;55800;54.272;18.558;2022-08-03T06:44:21;101196.97;;;19.64;53.75
68807;BME280;55800;54.272;18.558;2022-08-03T06:46:50;101189.72;;;19.77;53.69
68807;BME280;55800;54.272;18.558;2022-08-03T06:49:19;101199.47;;;19.92;53.81
68807;BME280;55800;54.272;18.558;2022-08-03T06:51:48;101191.44;;;20.03;53.85
68807;BME280;55800;54.272;18.558;2022-08-03T06:54:33;101194.03;;;20.17;53.87
68807;BME280;55800;54.272;18.558;2022-08-03T06:57:03;101202.09;;;20.32;53.94
68807;BME280;55800;54.272;18.558;2022-08-03T06:59:33;101204.84;;;20.43;53.95
68807;BME280;55800;54.272;18.558;2022-08-03T07:02:22;101196.56;;;20.57;54.17
68807;BME280;55800;54.272;18.558;2022-08-03T07:04:55;101197.38;;;20.70;54.07
68807;BME280;55800;54.272;18.558;2022-08-03T07:07:24;101201.78;;;20.83;54.26
68807;BME280;55800;54.272;18.558;2022-08-03T07:09:53;101191.84;;;20.95;53.87
68807;BME280;55800;54.272;18.558;2022-08-03T07:12:25;101194.41;;;21.09;54.03
68807;BME280;55800;54.272;18.558;2022-08-03T07:14:56;101187.06;;;21.22;54.09
68807;BME280;55800;54.272;18.558;2022-08-03T07:17:32;101194.13;;;21.36;54.04
68807;BME280;55800;54.272;18.558;2022-08-03T07:20:02;101179.59;;;21.48;54.16
68807;BME280;55800;54.272;18.558;2022-08-03T07:22:32;101184.06;;;21.60;54.20
68807;BME280;55800;54.272;18.558;2022-08-03T07:25:01;101188.44;;;21.73;54.09
68807;BME280;55800;54.272;18.558;2022-08-03T07:27:33;101194.66;;;21.87;54.16
68807;BME280;55800;54.272;18.558;2022-08-03T07:30:06;101183.75;;;21.98;54.30
68807;BME280;55800;54.272;18.558;2022-08-03T07:32:35;101187.25;;;22.11;54.11
68807;BME280;55800;54.272;18.558;2022-08-03T07:35:17;101186.97;;;22.25;54.32
68807;BME280;55800;54.272;18.558;2022-08-03T07:37:51;101187.84;;;22.36;54.26
68807;BME280;55800;54.272;18.558;2022-08-03T07:40:21;101188.59;;;22.49;54.33
68807;BME280;55800;54.272;18.558;2022-08-03T07:42:58;101185.75;;;22.62;54.22
68807;BME280;55800;54.272;18.558;2022-08-03T07:45:28;101181.09;;;22.74;54.40
68807;BME280;55800;54.272;18.558;2022-08-03T07:47:57;101183.81;;;22.85;54.28
68807;BME280;55800;54.272;18.558;2022-08-03T07:50:26;101182.91;;;22.95;54.10
68807;BME280;55800;54.272;18.558;2022-08-03T07:52:55;101179.28;;;23.06;54.30
68807;BME280;55800;54.272;18.558;2022-08-03T07:55:26;101179.22;;;23.17;54.22
68807;BME280;55800;54.272;18.558;2022-08-03T07:58:02;101172.84;;;23.27;54.04
68807;BME280;55800;54.272;18.558;2022-08-03T08:00:33;101173.81;;;23.38;54.15
68807;BME280;55800;54.272;18.558;2022-08-03T08:03:01;101176.50;;;23.49;54.22
68807;BME280;55800;54.272;18.558;2022-08-03T08:05:30;101171.94;;;23.59;54.23
68807;BME280;55800;54.272;18.558;2022-08-03T08:07:59;101181.81;;;23.71;54.14
68807;BME280;55800;54.272;18.558;2022-08-03T08:10:28;101180.72;;;23.83;54.16
68807;BME280;55800;54.272;18.558;2022-08-03T08:13:01;101185.09;;;23.95;54.23
68807;BME280;55800;54.272;18.558;2022-08-03T08:15:30;101176.84;;;24.06;54.24
68807;BME280;55800;54.272;18.558;2022-08-03T08:18:00;101175.75;;;24.18;54.16
68807;BME280;55800;54.272;18.558;2022-08-03T08:20:30;101172.06;;;24.29;54.09
68807;BME280;55800;54.272;18.558;2022-08-03T08:23:05;101177.28;;;24.41;53.96
68807;BME280;55800;54.272;18.558;2022-08-03T08:25:55;101174.44;;;24.52;53.94
68807;BME280;55800;54.272;18.558;2022-08-03T08:28:24;101169.00;;;24.62;53.97
68807;BME280;55800;54.272;18.558;2022-08-03T08:31:00;101183.41;;;24.73;53.62
68807;BME280;55800;54.272;18.558;2022-08-03T08:33:30;101169.91;;;24.82;53.18
68807;BME280;55800;54.272;18.558;2022-08-03T08:36:21;101174.28;;;24.94;53.06
68807;BME280;55800;54.272;18.558;2022-08-03T08:38:50;101182.47;;;25.03;53.25
68807;BME280;55800;54.272;18.558;2022-08-03T08:41:19;101183.47;;;25.12;52.77
68807;BME280;55800;54.272;18.558;2022-08-03T08:43:48;101185.38;;;25.21;51.93
68807;BME280;55800;54.272;18.558;2022-08-03T08:46:16;101180.03;;;25.29;52.14
68807;BME280;55800;54.272;18.558;2022-08-03T08:48:52;101172.81;;;25.37;51.59
68807;BME280;55800;54.272;18.558;2022-08-03T08:51:21;101183.81;;;25.47;51.42
68807;BME280;55800;54.272;18.558;2022-08-03T08:54:15;101179.16;;;25.57;50.97
68807;BME280;55800;54.272;18.558;2022-08-03T08:56:45;101170.22;;;25.65;50.30
68807;BME280;55800;54.272;18.558;2022-08-03T08:59:14;101180.28;;;25.74;50.37
68807;BME280;55800;54.272;18.558;2022-08-03T09:01:44;101187.47;;;25.84;50.27
68807;BME280;55800;54.272;18.558;2022-08-03T09:04:14;101185.72;;;25.93;49.50
68807;BME280;55800;54.272;18.558;2022-08-03T09:06:43;101173.00;;;26.01;49.51
68807;BME280;55800;54.272;18.558;2022-08-03T09:09:32;101174.72;;;26.12;48.96
68807;BME280;55800;54.272;18.558;2022-08-03T09:12:21;101178.44;;;26.20;48.43
68807;BME280;55800;54.272;18.558;2022-08-03T09:18:00;101181.78;;;26.42;48.10
68807;BME280;55800;54.272;18.558;2022-08-03T09:20:31;101185.66;;;26.49;48.25
68807;BME280;55800;54.272;18.558;2022-08-03T09:23:00;101187.47;;;26.58;48.40
68807;BME280;55800;54.272;18.558;2022-08-03T09:25:51;101179.31;;;26.66;48.44
68807;BME280;55800;54.272;18.558;2022-08-03T09:28:32;101181.34;;;26.73;48.21
68807;BME280;55800;54.272;18.558;2022-08-03T09:31:28;101177.81;;;26.81;48.14
68807;BME280;55800;54.272;18.558;2022-08-03T09:33:57;101185.28;;;26.88;47.65
68807;BME280;55800;54.272;18.558;2022-08-03T09:36:39;101172.81;;;26.94;47.39
68807;BME280;55800;54.272;18.558;2022-08-03T09:39:08;101176.50;;;27.02;47.69
68807;BME280;55800;54.272;18.558;2022-08-03T09:41:39;101176.75;;;27.09;47.32
68807;BME280;55800;54.272;18.558;2022-08-03T09:44:08;101179.03;;;27.14;46.98
68807;BME280;55800;54.272;18.558;2022-08-03T09:46:52;101178.94;;;27.23;46.69
68807;BME280;55800;54.272;18.558;2022-08-03T09:49:21;101183.81;;;27.29;46.47
68807;BME280;55800;54.272;18.558;2022-08-03T09:51:52;101180.31;;;27.37;46.42
68807;BME280;55800;54.272;18.558;2022-08-03T09:54:41;101184.28;;;27.42;46.44
68807;BME280;55800;54.272;18.558;2022-08-03T09:57:18;101174.75;;;27.46;46.08
68807;BME280;55800;54.272;18.558;2022-08-03T09:59:48;101169.63;;;27.51;45.87
68807;BME280;55800;54.272;18.558;2022-08-03T10:02:22;101173.63;;;27.57;46.06
68807;BME280;55800;54.272;18.558;2022-08-03T10:04:52;101178.78;;;27.60;45.60
68807;BME280;55800;54.272;18.558;2022-08-03T10:07:22;101172.09;;;27.62;45.48
68807;BME280;55800;54.272;18.558;2022-08-03T10:09:52;101175.94;;;27.69;45.27
68807;BME280;55800;54.272;18.558;2022-08-03T10:12:22;101184.41;;;27.76;45.10
68807;BME280;55800;54.272;18.558;2022-08-03T10:14:52;101178.09;;;27.83;45.33
68807;BME280;55800;54.272;18.558;2022-08-03T10:17:21;101180.88;;;27.92;45.25
68807;BME280;55800;54.272;18.558;2022-08-03T10:19:50;101168.25;;;27.99;45.29
68807;BME280;55800;54.272;18.558;2022-08-03T10:22:20;101172.09;;;28.06;45.15
68807;BME280;55800;54.272;18.558;2022-08-03T10:24:53;101158.69;;;28.11;44.54
68807;BME280;55800;54.272;18.558;2022-08-03T10:27:23;101165.97;;;28.20;44.56
68807;BME280;55800;54.272;18.558;2022-08-03T10:29:54;101164.31;;;28.27;44.84
68807;BME280;55800;54.272;18.558;2022-08-03T10:32:25;101164.47;;;28.33;44.48
68807;BME280;55800;54.272;18.558;2022-08-03T10:34:58;101160.22;;;28.39;44.05
68807;BME280;55800;54.272;18.558;2022-08-03T10:37:48;101160.25;;;28.47;44.30
68807;BME280;55800;54.272;18.558;2022-08-03T10:40:25;101163.88;;;28.55;44.09
68807;BME280;55800;54.272;18.558;2022-08-03T10:43:19;101162.38;;;28.61;44.03
68807;BME280;55800;54.272;18.558;2022-08-03T10:45:49;101165.50;;;28.66;42.90
68807;BME280;55800;54.272;18.558;2022-08-03T10:48:18;101159.69;;;28.69;43.00
68807;BME280;55800;54.272;18.558;2022-08-03T10:50:48;101150.06;;;28.73;42.71
68807;BME280;55800;54.272;18.558;2022-08-03T10:53:32;101148.00;;;28.75;42.83
68807;BME280;55800;54.272;18.558;2022-08-03T10:56:03;101155.19;;;28.76;42.90
68807;BME280;55800;54.272;18.558;2022-08-03T10:59:06;101152.44;;;28.76;41.47
68807;BME280;55800;54.272;18.558;2022-08-03T11:01:49;101154.19;;;28.77;42.14
68807;BME280;55800;54.272;18.558;2022-08-03T11:04:26;101144.75;;;28.80;42.60
68807;BME280;55800;54.272;18.558;2022-08-03T11:09:45;101152.50;;;28.84;41.42
68807;BME280;55800;54.272;18.558;2022-08-03T11:12:21;101152.31;;;28.86;41.66
68807;BME280;55800;54.272;18.558;2022-08-03T11:14:59;101150.06;;;28.89;41.82
68807;BME280;55800;54.272;18.558;2022-08-03T11:17:31;101149.75;;;28.92;41.98
68807;BME280;55800;54.272;18.558;2022-08-03T11:23:04;101132.72;;;29.05;42.83
68807;BME280;55800;54.272;18.558;2022-08-03T11:28:26;101142.06;;;29.20;42.38
68807;BME280;55800;54.272;18.558;2022-08-03T11:34:02;101125.72;;;29.26;40.38
68807;BME280;55800;54.272;18.558;2022-08-03T11:36:32;101130.88;;;29.29;40.84
68807;BME280;55800;54.272;18.558;2022-08-03T11:39:21;101128.63;;;29.33;40.72
68807;BME280;55800;54.272;18.558;2022-08-03T11:41:50;101129.50;;;29.33;41.01
68807;BME280;55800;54.272;18.558;2022-08-03T11:47:04;101126.03;;;29.40;40.99
68807;BME280;55800;54.272;18.558;2022-08-03T11:49:33;101121.94;;;29.44;41.34
68807;BME280;55800;54.272;18.558;2022-08-03T11:52:05;101117.41;;;29.51;40.83
68807;BME280;55800;54.272;18.558;2022-08-03T11:54:35;101120.53;;;29.56;41.05
68807;BME280;55800;54.272;18.558;2022-08-03T11:57:04;101122.56;;;29.62;41.17
68807;BME280;55800;54.272;18.558;2022-08-03T11:59:34;101120.31;;;29.65;41.16
68807;BME280;55800;54.272;18.558;2022-08-03T12:02:06;101120.66;;;29.70;40.98
68807;BME280;55800;54.272;18.558;2022-08-03T12:04:48;101112.94;;;29.74;40.78
68807;BME280;55800;54.272;18.558;2022-08-03T12:07:16;101113.47;;;29.77;40.40
68807;BME280;55800;54.272;18.558;2022-08-03T12:10:06;101113.09;;;29.80;39.59
68807;BME280;55800;54.272;18.558;2022-08-03T12:12:35;101122.03;;;29.82;39.99
68807;BME280;55800;54.272;18.558;2022-08-03T12:15:04;101105.16;;;29.85;39.95
68807;BME280;55800;54.272;18.558;2022-08-03T12:17:36;101110.84;;;29.92;40.02
68807;BME280;55800;54.272;18.558;2022-08-03T12:20:07;101110.13;;;29.98;39.22
68807;BME280;55800;54.272;18.558;2022-08-03T12:22:36;101099.59;;;30.01;38.65
68807;BME280;55800;54.272;18.558;2022-08-03T12:25:06;101100.09;;;30.05;39.63
68807;BME280;55800;54.272;18.558;2022-08-03T12:27:36;101109.38;;;30.12;40.06
68807;BME280;55800;54.272;18.558;2022-08-03T12:30:05;101103.13;;;30.18;39.98
68807;BME280;55800;54.272;18.558;2022-08-03T12:32:35;101109.84;;;30.24;40.18
68807;BME280;55800;54.272;18.558;2022-08-03T12:35:04;101092.56;;;30.30;40.25
68807;BME280;55800;54.272;18.558;2022-08-03T12:37:34;101096.53;;;30.35;40.47
68807;BME280;55800;54.272;18.558;2022-08-03T12:40:04;101093.91;;;30.42;40.59
68807;BME280;55800;54.272;18.558;2022-08-03T12:42:37;101094.72;;;30.50;40.44
68807;BME280;55800;54.272;18.558;2022-08-03T12:45:22;101095.72;;;30.57;39.96
68807;BME280;55800;54.272;18.558;2022-08-03T12:48:08;101094.66;;;30.66;39.98
68807;BME280;55800;54.272;18.558;2022-08-03T12:50:39;101090.78;;;30.75;40.02
68807;BME280;55800;54.272;18.558;2022-08-03T12:53:08;101089.88;;;30.83;40.17
68807;BME280;55800;54.272;18.558;2022-08-03T12:55:38;101092.13;;;30.88;40.12
68807;BME280;55800;54.272;18.558;2022-08-03T12:58:28;101082.78;;;30.89;39.85
68807;BME280;55800;54.272;18.558;2022-08-03T13:01:01;101088.81;;;30.92;39.58
68807;BME280;55800;54.272;18.558;2022-08-03T13:03:40;101088.81;;;30.92;39.49
68807;BME280;55800;54.272;18.558;2022-08-03T13:06:16;101082.03;;;30.95;39.87
68807;BME280;55800;54.272;18.558;2022-08-03T13:09:28;101078.91;;;30.98;39.41
68807;BME280;55800;54.272;18.558;2022-08-03T13:12:05;101079.59;;;31.00;39.01
68807;BME280;55800;54.272;18.558;2022-08-03T13:14:34;101072.44;;;31.05;39.22
68807;BME280;55800;54.272;18.558;2022-08-03T13:17:04;101069.53;;;31.07;38.40
68807;BME280;55800;54.272;18.558;2022-08-03T13:19:35;101069.13;;;31.10;38.64
68807;BME280;55800;54.272;18.558;2022-08-03T13:22:10;101072.22;;;31.15;38.92
68807;BME280;55800;54.272;18.558;2022-08-03T13:24:40;101068.03;;;31.19;38.18
68807;BME280;55800;54.272;18.558;2022-08-03T13:27:09;101069.38;;;31.23;38.19
68807;BME280;55800;54.272;18.558;2022-08-03T13:29:58;101065.19;;;31.27;37.26
68807;BME280;55800;54.272;18.558;2022-08-03T13:32:27;101075.88;;;31.30;37.63